Time;durP1;ratioP1;P1;durP2;ratioP2;P2;SDS_P1;SDS_P2;PMS_P1;PMS_P2;Temp;Humidity;BMP_temperature;BMP_pressure;BME280_temperature;BME280_humidity;BME280_pressure;Samples;Min_cycle;Max_cycle;Signal;HPM_P1;HPM_P2
2022/01/05 00:00:12;;;;;;;6.40;0.90;;;;;;;3.10;89.09;98994.04;105475;1279;63299;-81
2022/01/05 00:05:40;;;;;;;7.80;1.60;;;;;;;3.09;89.44;98996.56;106440;1281;71203;-81
2022/01/05 00:10:33;;;;;;;11.10;1.40;;;;;;;3.11;89.12;98990.16;106191;1281;1258468;-81
2022/01/05 00:13:05;;;;;;;7.60;2.10;;;;;;;3.10;88.94;98988.45;107006;1279;62247;-80
2022/01/05 00:18:05;;;;;;;1.90;1.00;;;;;;;3.11;88.95;98986.58;107011;1279;72424;-80
2022/01/05 00:20:31;;;;;;;5.10;1.40;;;;;;;3.12;88.77;98980.19;106979;1279;66627;-79
2022/01/05 00:22:57;;;;;;;5.20;1.30;;;;;;;3.12;88.55;98980.42;106942;1278;75374;-81
2022/01/05 00:27:55;;;;;;;11.80;1.20;;;;;;;3.13;88.95;98981.90;106713;1278;60748;-81
2022/01/05 00:30:36;;;;;;;;;;;;;;;;;;;;;
2022/01/05 00:32:57;;;;;;;19.20;1.90;;;;;;;3.13;88.62;98973.31;107298;1273;71512;-80
2022/01/05 00:35:23;;;;;;;2.50;1.00;;;;;;;3.13;88.79;98974.16;107392;1273;74382;-79
2022/01/05 00:37:50;;;;;;;5.50;1.40;;;;;;;3.10;88.57;98979.09;107445;1276;62627;-80
2022/01/05 00:40:17;;;;;;;2.90;1.70;;;;;;;3.11;88.38;98985.88;107494;1286;60709;-80
2022/01/05 00:42:43;;;;;;;6.00;1.00;;;;;;;3.11;88.10;98986.81;107517;1285;73277;-81
2022/01/05 00:45:10;;;;;;;10.00;1.60;;;;;;;3.11;88.26;98986.98;108194;1279;72180;-81
2022/01/05 00:47:39;;;;;;;5.20;0.70;;;;;;;3.10;88.57;98990.20;108218;1278;72823;-81
2022/01/05 00:50:09;;;;;;;4.70;1.10;;;;;;;3.09;88.56;98998.17;108201;1277;62298;-80
2022/01/05 00:52:36;;;;;;;4.30;1.10;;;;;;;3.08;88.53;99010.36;108334;1277;61426;-80
2022/01/05 00:55:03;;;;;;;7.10;1.70;;;;;;;3.07;88.94;99011.67;108239;1279;74646;-81
2022/01/05 00:57:33;;;;;;;4.10;1.70;;;;;;;3.07;88.53;99013.04;108267;1279;71676;-80
2022/01/05 01:02:41;;;;;;;2.80;1.00;;;;;;;3.09;88.55;99011.11;108006;1268;63389;-80
2022/01/05 01:05:08;;;;;;;9.00;1.70;;;;;;;3.10;88.08;99004.91;108049;1266;62514;-79
2022/01/05 01:07:46;;;;;;;;;;;;;;;;;;;;;
2022/01/05 01:10:08;;;;;;;6.10;1.00;;;;;;;3.10;87.92;99004.65;108048;1267;71467;-79
2022/01/05 01:15:08;;;;;;;11.10;1.60;;;;;;;3.12;88.00;99003.32;108084;1266;60470;-81
2022/01/05 01:20:04;;;;;;;6.00;2.00;;;;;;;3.11;87.55;99004.49;108032;1267;57650;-78
2022/01/05 01:22:32;;;;;;;9.00;1.40;;;;;;;3.12;87.32;99011.27;108160;1267;72479;-80
2022/01/05 01:25:00;;;;;;;15.90;1.40;;;;;;;3.13;86.97;99011.95;108215;1267;72831;-79
2022/01/05 01:27:44;;;;;;;;;;;;;;;;;;;;;
2022/01/05 01:30:03;;;;;;;6.70;1.30;;;;;;;3.10;87.20;99006.06;107871;1271;59162;-80
2022/01/05 01:32:30;;;;;;;13.10;2.30;;;;;;;3.11;87.17;99006.73;108166;1267;76778;-80
2022/01/05 01:34:56;;;;;;;6.10;1.80;;;;;;;3.11;87.35;99006.19;108195;1270;71357;-80
2022/01/05 01:39:58;;;;;;;7.60;1.30;;;;;;;3.08;87.36;99002.44;108125;1267;62309;-80
2022/01/05 01:44:51;;;;;;;8.70;1.60;;;;;;;3.06;87.22;99008.11;108025;1273;57851;-80
2022/01/05 01:49:47;;;;;;;10.50;1.30;;;;;;;3.05;87.23;99011.39;108068;1268;70375;-80
2022/01/05 01:57:16;;;;;;;9.30;1.20;;;;;;;3.01;87.51;99008.77;107890;1267;74530;-82
2022/01/05 02:00:14;;;;;;;12.10;1.10;;;;;;;3.04;87.29;99013.94;104658;1300;599686;-80
2022/01/05 02:02:44;;;;;;;5.80;1.40;;;;;;;3.00;87.10;99012.21;107051;1277;61048;-81
2022/01/05 02:05:11;;;;;;;7.00;0.90;;;;;;;3.00;86.87;99015.23;107045;1276;61747;-80
2022/01/05 02:07:41;;;;;;;11.90;1.30;;;;;;;3.01;86.80;99011.63;107170;1278;72532;-80
2022/01/05 02:10:17;;;;;;;7.90;1.70;;;;;;;3.00;86.74;99010.34;107211;1277;72789;-80
2022/01/05 02:12:44;;;;;;;2.70;1.20;;;;;;;3.01;86.71;99000.09;106932;1280;232998;-80
2022/01/05 02:15:11;;;;;;;9.40;1.00;;;;;;;3.01;86.77;99004.33;107308;1276;60151;-80
2022/01/05 02:20:36;;;;;;;;;;;;;;;;;;;;;
2022/01/05 02:23:00;;;;;;;7.40;0.90;;;;;;;2.96;86.55;99003.77;107421;1274;66419;-80
2022/01/05 02:25:38;;;;;;;;;;;;;;;;;;;;;
2022/01/05 02:28:03;;;;;;;8.70;1.30;;;;;;;2.96;86.70;99007.88;107408;1278;62612;-80
2022/01/05 02:30:31;;;;;;;6.10;1.00;;;;;;;2.95;86.51;99003.91;107469;1278;62460;-80
2022/01/05 02:32:58;;;;;;;3.80;0.80;;;;;;;2.94;86.57;99005.02;107504;1286;74413;-81
2022/01/05 02:35:30;;;;;;;7.20;1.00;;;;;;;2.94;86.64;99007.91;107708;1275;71504;-79
2022/01/05 02:37:56;;;;;;;5.60;0.90;;;;;;;2.93;86.48;99004.52;107761;1274;74020;-81
2022/01/05 02:40:28;;;;;;;6.30;1.20;;;;;;;2.92;86.99;99004.98;107752;1273;61524;-79
2022/01/05 02:42:56;;;;;;;9.10;1.30;;;;;;;2.91;86.78;99006.11;107875;1270;61543;-79
2022/01/05 02:45:24;;;;;;;10.60;2.00;;;;;;;2.90;87.06;99000.81;107868;1271;73741;-81
2022/01/05 02:48:09;;;;;;;6.70;1.60;;;;;;;2.91;87.11;99003.17;103153;1302;601245;-85
2022/01/05 02:50:36;;;;;;;6.10;1.30;;;;;;;2.87;86.91;99002.65;105322;1279;59442;-80
2022/01/05 02:53:03;;;;;;;7.20;1.30;;;;;;;2.85;86.97;98997.95;105112;1286;60595;-80
2022/01/05 02:55:30;;;;;;;4.10;1.40;;;;;;;2.83;87.25;98996.11;105237;1284;73705;-78
2022/01/05 02:57:59;;;;;;;4.00;0.80;;;;;;;2.79;87.26;98991.80;104923;1286;71608;-78
2022/01/05 03:00:28;;;;;;;7.10;2.00;;;;;;;2.75;87.36;98991.72;104967;1286;72758;-79
2022/01/05 03:02:55;;;;;;;3.20;1.00;;;;;;;2.73;87.35;98996.73;104441;1286;471149;-80
2022/01/05 03:05:38;;;;;;;4.80;1.20;;;;;;;2.70;87.53;98993.88;105068;1277;61619;-81
2022/01/05 03:08:05;;;;;;;4.20;1.10;;;;;;;2.68;87.48;98990.61;105604;1277;72604;-79
2022/01/05 03:10:35;;;;;;;7.80;1.30;;;;;;;2.65;87.48;98999.77;104615;1289;71478;-80
2022/01/05 03:13:07;;;;;;;10.20;1.40;;;;;;;2.64;87.35;99001.34;104567;1288;74496;-78
2022/01/05 03:15:37;;;;;;;4.20;1.20;;;;;;;2.63;87.39;99000.91;104998;1288;61058;-78
2022/01/05 03:18:15;;;;;;;7.20;1.30;;;;;;;2.60;87.46;99007.31;105186;1286;60642;-78
2022/01/05 03:20:42;;;;;;;5.40;1.10;;;;;;;2.58;87.06;99007.20;104956;1278;72715;-81
2022/01/05 03:23:11;;;;;;;10.70;1.80;;;;;;;2.58;87.06;99007.05;105498;1279;72287;-80
2022/01/05 03:26:02;;;;;;;8.10;1.30;;;;;;;2.58;86.72;99009.27;104900;1288;73558;-78
2022/01/05 03:28:31;;;;;;;3.50;1.30;;;;;;;2.60;86.68;99004.89;105155;1286;61471;-79
2022/01/05 03:30:58;;;;;;;6.80;0.80;;;;;;;2.59;87.18;99007.77;105410;1276;60772;-78
2022/01/05 03:33:29;;;;;;;3.70;0.90;;;;;;;2.58;86.98;99008.81;105395;1284;76918;-79
2022/01/05 03:35:59;;;;;;;10.30;2.10;;;;;;;2.57;86.93;99008.23;104945;1287;71430;-80
2022/01/05 03:38:28;;;;;;;2.70;0.90;;;;;;;2.54;86.88;99010.98;105293;1286;72899;-80
2022/01/05 03:41:06;;;;;;;2.70;0.90;;;;;;;2.52;87.07;99015.56;105138;1281;61602;-79
2022/01/05 03:43:35;;;;;;;5.60;2.70;;;;;;;2.50;87.39;99015.75;105135;1281;60618;-78
2022/01/05 03:48:27;;;;;;;6.70;1.00;;;;;;;2.49;86.78;99022.20;106143;1277;68228;-79
2022/01/05 03:50:54;;;;;;;6.20;1.20;;;;;;;2.49;86.51;99025.08;105372;1279;60097;-79
2022/01/05 03:53:21;;;;;;;11.80;1.30;;;;;;;2.50;86.41;99027.63;104776;1288;59687;-83
2022/01/05 03:55:55;;;;;;;7.60;1.40;;;;;;;2.50;85.97;99031.95;105278;1288;59722;-79
2022/01/05 03:58:25;;;;;;;11.40;1.80;;;;;;;2.51;86.26;99022.27;105385;1279;74496;-80
2022/01/05 04:00:52;;;;;;;8.10;1.10;;;;;;;2.50;86.30;99030.08;105123;1282;72676;-79
2022/01/05 04:03:19;;;;;;;3.90;0.90;;;;;;;2.49;86.10;99030.70;105075;1283;75478;-83
2022/01/05 04:05:46;;;;;;;5.00;1.00;;;;;;;2.46;86.25;99039.21;105726;1277;60859;-80
2022/01/05 04:08:13;;;;;;;5.90;2.60;;;;;;;2.43;86.10;99044.34;105908;1276;64200;-79
2022/01/05 04:10:43;;;;;;;9.60;1.30;;;;;;;2.41;86.24;99047.53;106345;1276;74735;-80
2022/01/05 04:13:14;;;;;;;3.10;0.60;;;;;;;2.39;85.93;99051.05;107166;1276;72460;-80
2022/01/05 04:15:41;;;;;;;6.20;0.90;;;;;;;2.38;85.91;99052.19;107360;1275;72918;-80
2022/01/05 04:18:08;;;;;;;4.20;1.00;;;;;;;2.35;85.80;99062.51;107361;1276;62556;-80
2022/01/05 04:20:35;;;;;;;6.80;0.90;;;;;;;2.35;85.39;99061.97;107327;1276;61313;-80
2022/01/05 04:25:40;;;;;;;12.50;1.30;;;;;;;2.30;85.63;99060.30;107335;1276;71433;-80
2022/01/05 04:28:07;;;;;;;6.70;1.00;;;;;;;2.26;85.69;99057.69;107218;1274;72456;-79
2022/01/05 04:30:34;;;;;;;7.90;1.10;;;;;;;2.23;85.63;99061.02;107272;1274;62430;-80
2022/01/05 04:33:01;;;;;;;10.20;1.50;;;;;;;2.22;85.54;99065.98;107345;1274;60621;-79
2022/01/05 04:35:41;;;;;;;5.10;1.20;;;;;;;2.19;85.56;99062.60;106952;1277;71974;-80
2022/01/05 04:38:13;;;;;;;6.30;1.30;;;;;;;2.16;85.54;99061.56;107058;1277;71470;-79
2022/01/05 04:40:39;;;;;;;2.00;0.70;;;;;;;2.10;85.74;99055.23;107159;1276;74455;-79
2022/01/05 04:43:06;;;;;;;9.90;1.60;;;;;;;2.09;85.36;99056.74;107322;1286;61612;-80
2022/01/05 04:45:33;;;;;;;7.30;1.10;;;;;;;2.07;85.40;99053.30;107370;1286;60778;-80
2022/01/05 04:48:00;;;;;;;1.60;0.70;;;;;;;2.04;85.22;99056.90;107325;1287;74338;-79
2022/01/05 04:50:28;;;;;;;3.40;0.90;;;;;;;2.00;85.28;99062.52;107191;1286;72740;-79
2022/01/05 04:52:54;;;;;;;8.60;1.30;;;;;;;1.97;85.10;99075.34;107375;1286;73409;-80
2022/01/05 04:55:23;;;;;;;6.60;1.00;;;;;;;1.98;84.81;99072.15;107394;1286;59704;-80
2022/01/05 04:57:59;;;;;;;4.10;0.80;;;;;;;1.96;85.14;99077.20;107087;1289;60747;-80
2022/01/05 05:00:26;;;;;;;8.70;1.30;;;;;;;1.96;84.81;99072.36;106994;1286;73296;-80
2022/01/05 05:02:56;;;;;;;6.50;0.90;;;;;;;1.95;84.66;99074.35;107375;1284;72813;-79
2022/01/05 05:05:29;;;;;;;7.30;1.10;;;;;;;1.93;84.68;99076.67;107011;1289;73000;-80
2022/01/05 05:07:57;;;;;;;8.70;1.40;;;;;;;1.92;84.78;99078.01;108223;1275;62796;-81
2022/01/05 05:10:25;;;;;;;13.30;1.20;;;;;;;1.90;84.80;99080.42;108519;1274;59694;-80
2022/01/05 05:12:52;;;;;;;6.40;1.00;;;;;;;1.88;84.84;99081.05;108318;1276;73235;-81
2022/01/05 05:15:18;;;;;;;2.20;1.10;;;;;;;1.84;84.74;99069.52;108545;1274;71401;-80
2022/01/05 05:20:25;;;;;;;8.00;1.50;;;;;;;1.80;84.67;99077.45;108351;1273;61491;-79
2022/01/05 05:22:51;;;;;;;6.80;1.30;;;;;;;1.80;84.77;99079.21;108507;1276;60110;-80
2022/01/05 05:25:21;;;;;;;5.60;1.00;;;;;;;1.81;84.65;99079.27;108410;1276;74680;-80
2022/01/05 05:27:48;;;;;;;4.50;1.00;;;;;;;1.79;84.67;99073.04;108331;1276;71678;-80
2022/01/05 05:30:23;;;;;;;6.10;1.00;;;;;;;1.76;84.56;99081.70;108248;1265;71344;-79
2022/01/05 05:32:57;;;;;;;8.60;1.30;;;;;;;1.76;84.85;99078.77;108311;1265;63264;-79
2022/01/05 05:35:29;;;;;;;3.00;0.80;;;;;;;1.73;84.53;99080.27;108383;1270;62047;-80
2022/01/05 05:37:56;;;;;;;10.90;1.10;;;;;;;1.74;84.74;99074.48;108106;1272;72872;-80
2022/01/05 05:40:24;;;;;;;3.20;1.30;;;;;;;1.71;84.43;99075.48;108421;1268;72388;-79
2022/01/05 05:42:55;;;;;;;8.50;1.00;;;;;;;1.70;84.33;99076.30;108408;1265;72887;-78
2022/01/05 05:45:22;;;;;;;4.60;1.40;;;;;;;1.69;84.11;99079.30;108330;1266;62777;-79
2022/01/05 05:50:29;;;;;;;5.00;0.90;;;;;;;1.64;84.10;99067.59;108265;1266;73403;-80
2022/01/05 05:55:21;;;;;;;4.80;1.10;;;;;;;1.60;83.79;99070.74;108344;1266;57523;-80
2022/01/05 05:57:48;;;;;;;5.90;1.80;;;;;;;1.59;83.25;99071.05;108325;1267;57506;-80
2022/01/05 06:00:15;;;;;;;7.80;1.20;;;;;;;1.59;83.15;99072.98;108385;1263;59122;-80
2022/01/05 06:02:43;;;;;;;7.00;0.80;;;;;;;1.57;83.02;99073.02;108354;1265;57605;-79
2022/01/05 06:07:40;;;;;;;3.10;0.70;;;;;;;1.57;82.63;99070.25;108305;1262;73085;-79
2022/01/05 06:12:50;;;;;;;9.10;1.20;;;;;;;1.57;82.36;99070.64;108333;1264;60819;-80
2022/01/05 06:15:16;;;;;;;3.70;1.00;;;;;;;1.57;82.71;99070.93;108437;1274;72654;-80
2022/01/05 06:17:45;;;;;;;5.20;1.00;;;;;;;1.55;82.85;99078.30;108425;1276;72957;-80
2022/01/05 06:20:25;;;;;;;4.40;1.60;;;;;;;1.54;82.65;99076.27;108304;1276;72963;-79
2022/01/05 06:22:55;;;;;;;11.30;1.20;;;;;;;1.54;82.50;99076.66;108259;1276;59651;-80
2022/01/05 06:25:39;;;;;;;7.70;0.90;;;;;;;1.54;82.72;99075.42;108456;1276;60595;-80
2022/01/05 06:28:11;;;;;;;7.60;1.00;;;;;;;1.56;82.88;99078.17;108352;1277;73386;-80
2022/01/05 06:30:59;;;;;;;7.90;1.90;;;;;;;1.55;82.83;99075.14;108388;1276;72695;-79
2022/01/05 06:33:28;;;;;;;2.80;0.90;;;;;;;1.55;82.86;99080.95;108448;1267;72978;-81
2022/01/05 06:38:39;;;;;;;9.80;1.10;;;;;;;1.54;82.86;99078.27;108355;1265;57783;31
2022/01/05 06:41:28;;;;;;;3.10;1.40;;;;;;;1.52;83.02;99079.34;108461;1265;74138;31
2022/01/05 06:46:52;;;;;;;5.90;0.90;;;;;;;1.50;82.85;99089.12;108005;1271;71612;31
2022/01/05 06:49:40;;;;;;;6.10;1.30;;;;;;;1.49;82.71;99082.75;108204;1271;61422;31
2022/01/05 06:52:08;;;;;;;8.00;1.30;;;;;;;1.49;82.76;99092.45;107566;1272;60611;-79
2022/01/05 06:54:34;;;;;;;7.40;1.30;;;;;;;1.51;82.59;99090.77;107870;1268;75625;-80
2022/01/05 06:57:01;;;;;;;9.90;1.20;;;;;;;1.51;82.46;99097.83;107711;1269;66405;-80
2022/01/05 06:59:39;;;;;;;;;;;;;;;;;;;;;
2022/01/05 07:02:04;;;;;;;10.70;1.30;;;;;;;1.53;82.39;99092.40;108146;1268;58557;-78
2022/01/05 07:10:31;;;;;;;3.30;1.30;;;;;;;1.51;82.65;99098.60;108101;1268;144768;-75
2022/01/05 07:12:57;;;;;;;14.20;2.50;;;;;;;1.53;82.45;99096.13;108062;1278;72439;-75
2022/01/05 07:15:25;;;;;;;7.40;1.80;;;;;;;1.56;82.51;99096.86;108132;1279;63285;-75
2022/01/05 07:17:52;;;;;;;4.80;1.60;;;;;;;1.58;82.46;99105.53;108141;1278;61671;-75
2022/01/05 07:20:19;;;;;;;10.00;1.90;;;;;;;1.59;82.73;99109.55;108033;1279;74245;-75
2022/01/05 07:22:45;;;;;;;11.40;1.80;;;;;;;1.58;82.88;99114.19;108121;1278;71648;-76
2022/01/05 07:25:12;;;;;;;9.60;1.70;;;;;;;1.59;83.11;99116.96;108033;1279;74101;-76
2022/01/05 07:27:42;;;;;;;7.30;1.30;;;;;;;1.58;83.27;99114.61;108099;1278;61570;-77
2022/01/05 07:30:10;;;;;;;12.00;1.70;;;;;;;1.56;83.40;99119.27;108074;1279;61400;-76
2022/01/05 07:32:37;;;;;;;12.90;2.40;;;;;;;1.56;83.74;99123.13;107951;1279;74235;-75
2022/01/05 07:35:04;;;;;;;10.40;1.90;;;;;;;1.56;83.63;99119.53;107628;1281;72550;-75
2022/01/05 07:37:31;;;;;;;5.90;1.90;;;;;;;1.55;83.69;99120.61;108096;1279;73152;-76
2022/01/05 07:39:58;;;;;;;4.40;1.10;;;;;;;1.55;83.80;99119.59;108076;1279;62493;-76
2022/01/05 07:42:36;;;;;;;;;;;;;;;;;;;;;
2022/01/05 07:45:05;;;;;;;5.70;1.40;;;;;;;1.55;84.09;99130.77;108091;1279;73909;-77
2022/01/05 07:47:32;;;;;;;8.70;1.90;;;;;;;1.57;84.01;99128.46;107457;1281;72170;-76
2022/01/05 07:49:59;;;;;;;6.70;1.70;;;;;;;1.58;83.80;99133.70;108081;1279;73120;-75
2022/01/05 07:52:32;;;;;;;7.30;1.70;;;;;;;1.62;83.46;99119.84;107933;1279;61587;-74
2022/01/05 07:55:01;;;;;;;13.90;2.00;;;;;;;1.63;83.55;99126.71;107740;1279;60595;-75
2022/01/05 07:57:28;;;;;;;11.80;3.40;;;;;;;1.64;83.69;99131.73;108084;1279;73182;-75
2022/01/05 08:00:02;;;;;;;3.50;1.30;;;;;;;1.66;83.82;99133.86;107949;1281;71426;-75
2022/01/05 08:02:32;;;;;;;6.40;1.70;;;;;;;1.66;83.50;99136.04;107663;1281;72952;-76
2022/01/05 08:04:59;;;;;;;9.70;2.40;;;;;;;1.68;83.50;99136.78;107882;1281;61571;-75
2022/01/05 08:07:26;;;;;;;6.30;2.20;;;;;;;1.71;83.41;99136.96;108105;1278;61594;-75
2022/01/05 08:09:55;;;;;;;13.40;2.00;;;;;;;1.74;83.25;99134.59;107930;1279;74123;-76
2022/01/05 08:12:22;;;;;;;10.10;2.70;;;;;;;1.76;83.08;99144.32;108110;1279;72000;-75
2022/01/05 08:14:49;;;;;;;10.20;1.90;;;;;;;1.79;83.15;99136.17;108085;1279;74011;-75
2022/01/05 08:17:16;;;;;;;5.20;1.90;;;;;;;1.80;83.10;99139.16;108033;1279;61443;-75
2022/01/05 08:19:44;;;;;;;4.40;1.50;;;;;;;1.82;83.05;99142.08;108113;1278;60495;-75
2022/01/05 08:22:13;;;;;;;13.10;2.20;;;;;;;1.84;82.80;99139.48;108105;1279;74183;-76
2022/01/05 08:24:48;;;;;;;5.90;2.10;;;;;;;1.86;82.62;99141.89;108156;1278;71410;-76
2022/01/05 08:27:19;;;;;;;11.90;2.80;;;;;;;1.88;82.35;99144.31;107932;1280;74291;-76
2022/01/05 08:29:46;;;;;;;7.80;2.70;;;;;;;1.90;82.54;99144.38;108099;1279;61940;-76
2022/01/05 08:32:14;;;;;;;4.30;1.70;;;;;;;1.94;82.21;99146.76;108124;1279;60733;-75
2022/01/05 08:34:41;;;;;;;7.30;2.30;;;;;;;1.98;82.21;99151.64;107942;1280;74290;-75
2022/01/05 08:37:09;;;;;;;8.40;1.90;;;;;;;2.01;81.90;99144.50;107906;1279;71378;-75
2022/01/05 08:39:36;;;;;;;11.50;2.30;;;;;;;2.03;81.81;99146.23;108098;1279;74525;-76
2022/01/05 08:42:03;;;;;;;6.10;1.90;;;;;;;2.08;81.67;99150.50;107955;1281;60807;-77
2022/01/05 08:44:30;;;;;;;9.70;2.20;;;;;;;2.11;81.40;99153.98;108112;1279;61945;-76
2022/01/05 08:46:57;;;;;;;11.70;3.10;;;;;;;2.15;81.38;99155.50;107982;1281;74084;-76
2022/01/05 08:49:24;;;;;;;12.60;2.70;;;;;;;2.20;81.35;99158.58;108033;1279;71319;-76
2022/01/05 08:51:50;;;;;;;9.80;1.90;;;;;;;2.28;81.25;99158.84;108095;1279;72959;-75
2022/01/05 08:54:17;;;;;;;3.40;1.40;;;;;;;2.37;80.47;99153.50;107720;1281;58705;-75
2022/01/05 08:56:45;;;;;;;9.40;3.50;;;;;;;2.47;80.58;99157.42;108156;1279;60399;-75
2022/01/05 08:59:12;;;;;;;7.30;2.50;;;;;;;2.54;79.64;99163.62;108096;1279;75284;-75
2022/01/05 09:01:42;;;;;;;16.60;2.30;;;;;;;2.60;79.65;99156.37;107984;1280;71168;-75
2022/01/05 09:04:10;;;;;;;7.60;2.20;;;;;;;2.63;79.63;99151.29;107774;1281;73002;-74
2022/01/05 09:06:37;;;;;;;8.10;2.60;;;;;;;2.66;78.67;99167.14;107757;1281;60087;-75
2022/01/05 09:09:04;;;;;;;5.40;1.80;;;;;;;2.68;78.81;99144.16;108095;1279;61680;-75
2022/01/05 09:11:31;;;;;;;10.60;2.10;;;;;;;2.69;78.56;99144.06;108045;1279;73803;-75
2022/01/05 09:13:57;;;;;;;9.20;2.50;;;;;;;2.70;78.44;99149.60;108107;1278;72398;-73
2022/01/05 09:16:29;;;;;;;8.00;2.10;;;;;;;2.72;78.80;99146.69;108074;1277;74080;-74
2022/01/05 09:19:17;;;;;;;11.20;2.70;;;;;;;2.74;78.78;99149.64;108004;1279;60042;-74
2022/01/05 09:21:48;;;;;;;5.40;2.50;;;;;;;2.78;78.67;99144.04;108138;1277;61805;-76
2022/01/05 09:24:37;;;;;;;6.60;2.20;;;;;;;2.80;78.26;99161.02;108136;1279;76548;-75
2022/01/05 09:27:06;;;;;;;6.20;3.10;;;;;;;2.84;78.03;99143.71;108128;1279;72435;-75
2022/01/05 09:29:40;;;;;;;7.50;2.70;;;;;;;2.89;78.37;99140.11;107836;1281;72804;-75
2022/01/05 09:32:09;;;;;;;7.00;3.00;;;;;;;2.93;78.17;99138.45;108039;1279;59813;-76
2022/01/05 09:34:37;;;;;;;5.80;2.30;;;;;;;2.95;78.05;99134.02;108108;1279;60757;-75
2022/01/05 09:37:12;;;;;;;6.50;2.50;;;;;;;3.00;77.74;99146.44;108022;1279;73834;-75
2022/01/05 09:42:24;;;;;;;;;;;;;;;3.00;77.88;99139.63;108124;1279;73945;-75
2022/01/05 09:44:52;;;;;;;9.50;3.00;;;;;;;2.99;78.34;99135.90;108111;1279;58381;-75
2022/01/05 09:48:08;;;;;;;10.10;3.10;;;;;;;2.99;78.60;99127.09;108120;1279;61820;-75
2022/01/05 09:50:33;;;;;;;8.50;3.10;;;;;;;3.03;78.42;99132.62;108053;1279;75469;-74
2022/01/05 09:53:11;;;;;;;8.60;3.30;;;;;;;3.04;78.60;99141.39;107954;1279;72423;-75
2022/01/05 09:55:38;;;;;;;5.80;3.20;;;;;;;3.11;78.41;99131.39;108134;1279;74177;-76
2022/01/05 09:58:05;;;;;;;9.40;3.00;;;;;;;3.25;78.05;99131.09;108017;1279;60865;-76
2022/01/05 10:00:32;;;;;;;5.40;3.30;;;;;;;3.35;78.41;99137.75;108157;1279;60599;-75
2022/01/05 10:02:59;;;;;;;8.30;3.10;;;;;;;3.42;78.71;99130.82;108128;1278;75371;-75
2022/01/05 10:05:30;;;;;;;11.90;3.70;;;;;;;3.38;78.21;99133.22;107895;1280;72404;-75
2022/01/05 10:07:57;;;;;;;9.40;3.00;;;;;;;3.37;78.76;99137.71;107945;1279;74246;-76
2022/01/05 10:10:24;;;;;;;4.80;2.50;;;;;;;3.33;78.87;99128.85;107597;1281;60849;-76
2022/01/05 10:12:50;;;;;;;6.30;3.10;;;;;;;3.32;78.92;99130.26;107779;1281;62881;-76
2022/01/05 10:15:17;;;;;;;7.20;3.00;;;;;;;3.34;78.74;99133.50;107848;1280;74494;-76
2022/01/05 10:17:43;;;;;;;7.90;3.20;;;;;;;3.33;78.60;99132.95;107998;1279;72455;-75
2022/01/05 10:20:11;;;;;;;7.60;3.30;;;;;;;3.30;78.67;99132.75;108115;1278;73087;-75
2022/01/05 10:22:43;;;;;;;5.90;3.60;;;;;;;3.27;78.96;99119.02;107952;1280;61303;-76
2022/01/05 10:25:25;;;;;;;9.70;2.50;;;;;;;3.25;78.78;99114.45;108098;1278;61702;-75
2022/01/05 10:27:58;;;;;;;6.30;3.20;;;;;;;3.25;78.66;99126.33;108021;1279;74716;-76
2022/01/05 10:30:39;;;;;;;;;;;;;;;3.23;78.73;99122.08;107931;1280;71257;-75
2022/01/05 10:33:07;;;;;;;7.50;3.80;;;;;;;3.20;79.40;99133.94;107647;1281;73658;-75
2022/01/05 10:35:37;;;;;;;6.10;3.00;;;;;;;3.18;80.42;99133.29;107578;1281;61102;-77
2022/01/05 10:38:12;;;;;;;7.60;3.10;;;;;;;3.13;81.53;99136.83;107943;1279;60293;-75
2022/01/05 10:40:40;;;;;;;;;;;;;;;2.97;83.52;99156.13;107936;1279;75036;-75
2022/01/05 10:43:22;;;;;;;4.30;2.60;;;;;;;2.78;84.96;99140.84;107979;1278;70106;-74
2022/01/05 10:45:58;;;;;;;12.60;2.70;;;;;;;2.63;86.48;99138.23;107924;1281;72982;-74
2022/01/05 10:48:40;;;;;;;5.40;2.80;;;;;;;2.54;87.16;99138.70;107962;1280;62171;-73
2022/01/05 10:51:31;;;;;;;5.50;3.30;;;;;;;2.45;87.72;99139.78;107924;1279;62371;-72
2022/01/05 10:54:14;;;;;;;4.00;2.60;;;;;;;2.38;87.98;99138.39;107943;1279;74197;-74
2022/01/05 10:56:42;;;;;;;12.90;6.10;;;;;;;2.34;88.10;99140.05;108128;1279;71379;-72
2022/01/05 10:59:09;;;;;;;4.20;2.20;;;;;;;2.33;88.56;99139.10;108106;1278;73302;-73
2022/01/05 11:01:38;;;;;;;2.60;2.10;;;;;;;2.32;88.64;99137.70;107932;1279;61597;-73
2022/01/05 11:04:18;;;;;;;5.70;3.40;;;;;;;2.32;88.91;99132.80;107917;1279;60254;-73
2022/01/05 11:06:59;;;;;;;4.10;3.00;;;;;;;2.34;89.31;99128.54;107955;1281;74155;-73
2022/01/05 11:09:27;;;;;;;8.10;3.00;;;;;;;2.38;88.89;99131.48;108134;1279;70365;-73
2022/01/05 11:11:54;;;;;;;4.20;2.50;;;;;;;2.40;88.70;99139.99;107945;1279;74268;-73
2022/01/05 11:14:30;;;;;;;3.60;2.10;;;;;;;2.42;88.75;99130.16;108125;1277;59791;-73
2022/01/05 11:16:59;;;;;;;4.20;2.60;;;;;;;2.48;88.72;99123.13;107806;1279;60677;-74
2022/01/05 11:19:31;;;;;;;2.70;1.50;;;;;;;2.52;88.34;99130.59;108163;1277;72825;-74
2022/01/05 11:22:16;;;;;;;3.60;2.40;;;;;;;2.58;88.12;99142.13;107931;1280;71278;-74
2022/01/05 11:24:45;;;;;;;4.60;2.60;;;;;;;2.64;88.49;99139.05;108098;1278;74413;-74
2022/01/05 11:27:27;;;;;;;4.00;2.90;;;;;;;2.66;89.32;99131.66;107767;1281;61042;-73
2022/01/05 11:29:57;;;;;;;4.00;2.40;;;;;;;2.60;89.56;99142.77;108148;1279;60315;-73
2022/01/05 11:32:30;;;;;;;4.60;2.30;;;;;;;2.53;90.03;99148.10;107866;1279;75818;-74
2022/01/05 11:34:57;;;;;;;4.20;2.00;;;;;;;2.39;90.97;99158.36;108119;1277;72637;-73
2022/01/05 11:37:27;;;;;;;3.60;2.70;;;;;;;2.22;92.15;99165.02;108160;1279;72924;-75
2022/01/05 11:40:05;;;;;;;2.50;1.80;;;;;;;2.01;93.33;99155.70;108131;1279;59149;-75
2022/01/05 11:42:37;;;;;;;3.90;2.90;;;;;;;1.83;94.27;99152.30;107616;1279;60599;-73
2022/01/05 11:45:06;;;;;;;3.00;2.40;;;;;;;1.66;95.45;99161.50;107905;1279;75198;-74
2022/01/05 11:47:38;;;;;;;2.60;1.90;;;;;;;1.54;96.50;99151.70;108148;1279;71085;-73
2022/01/05 11:50:14;;;;;;;3.30;2.60;;;;;;;1.49;97.46;99151.92;108120;1279;74423;-73
2022/01/05 11:53:03;;;;;;;3.60;2.30;;;;;;;1.45;98.19;99155.24;108093;1279;60933;-73
2022/01/05 11:55:32;;;;;;;2.00;1.60;;;;;;;1.43;98.81;99163.60;107915;1281;60315;-74
2022/01/05 11:58:53;;;;;;;4.40;2.50;;;;;;;1.43;99.04;99157.41;107903;1279;75302;-74
2022/01/05 12:01:20;;;;;;;7.00;2.50;;;;;;;1.41;99.48;99163.02;106956;1288;72224;-73
2022/01/05 12:03:50;;;;;;;2.70;1.90;;;;;;;1.43;99.93;99162.27;107176;1287;72776;-75
2022/01/05 12:06:27;;;;;;;4.30;3.50;;;;;;;1.46;99.92;99173.63;107637;1279;61608;-76
2022/01/05 12:09:00;;;;;;;2.80;2.00;;;;;;;1.52;99.82;99161.55;108152;1279;60686;-74
2022/01/05 12:11:43;;;;;;;3.10;2.10;;;;;;;1.59;99.69;99162.37;107906;1279;74169;-75
2022/01/05 12:14:22;;;;;;;4.30;2.40;;;;;;;1.69;99.64;99154.62;108178;1279;71377;-76
2022/01/05 12:17:01;;;;;;;3.70;3.10;;;;;;;1.79;99.58;99147.48;107741;1281;73155;-76
2022/01/05 12:19:55;;;;;;;3.80;2.60;;;;;;;1.92;98.95;99157.01;108106;1279;62994;-76
2022/01/05 12:22:28;;;;;;;3.30;2.80;;;;;;;2.08;98.12;99161.61;107788;1281;60366;-75
2022/01/05 12:25:09;;;;;;;3.60;2.00;;;;;;;2.16;97.55;99175.45;108146;1279;75422;-75
2022/01/05 12:27:48;;;;;;;3.10;1.90;;;;;;;2.24;97.42;99175.35;107928;1281;71379;-74
2022/01/05 12:30:18;;;;;;;3.60;2.50;;;;;;;2.35;97.11;99160.76;107916;1279;71902;-74
2022/01/05 12:33:07;;;;;;;3.20;2.30;;;;;;;2.50;97.22;99160.80;107949;1281;61402;-75
2022/01/05 12:35:43;;;;;;;3.70;2.30;;;;;;;2.61;96.77;99159.27;107566;1282;59963;-74
2022/01/05 12:38:11;;;;;;;4.20;2.30;;;;;;;2.65;95.97;99160.91;107942;1281;74150;-75
2022/01/05 12:40:45;;;;;;;3.30;1.90;;;;;;;2.61;95.77;99177.91;107943;1281;71457;-75
2022/01/05 12:43:18;;;;;;;3.30;2.30;;;;;;;2.58;95.36;99181.27;107846;1281;73959;-75
2022/01/05 12:45:48;;;;;;;5.40;2.10;;;;;;;2.55;96.06;99178.50;107814;1281;61369;-74
2022/01/05 12:48:36;;;;;;;3.20;2.20;;;;;;;2.55;96.03;99186.25;107870;1281;61796;-74
2022/01/05 12:51:14;;;;;;;3.90;2.40;;;;;;;2.56;95.68;99181.75;107956;1280;74976;-74
2022/01/05 12:53:52;;;;;;;3.00;1.60;;;;;;;2.60;95.43;99160.42;107829;1281;70425;-74
2022/01/05 12:56:20;;;;;;;2.60;1.80;;;;;;;2.61;96.06;99168.54;107664;1281;73106;-74
2022/01/05 12:58:51;;;;;;;2.00;1.60;;;;;;;2.60;95.81;99175.70;107745;1281;62329;-74
2022/01/05 13:01:20;;;;;;;2.40;1.30;;;;;;;2.61;95.72;99173.09;107849;1281;61663;-74
2022/01/05 13:03:47;;;;;;;4.00;1.90;;;;;;;2.61;96.01;99183.02;107909;1281;74307;-74